Time;durP1;ratioP1;P1;durP2;ratioP2;P2;SDS_P1;SDS_P2;PMS_P1;PMS_P2;Temp;Humidity;BMP_temperature;BMP_pressure;BME280_temperature;BME280_humidity;BME280_pressure;Samples;Min_cycle;Max_cycle;Signal;HPM_P1;HPM_P2
2023/01/06 00:00:44;;;;;;;12.18;4.68;;;;;;;10.25;100.00;100907.59;4997667;28;20226;-75
2023/01/06 00:03:11;;;;;;;9.40;4.32;;;;;;;10.20;100.00;100900.56;4998075;28;20235;-76
2023/01/06 00:05:37;;;;;;;10.65;4.75;;;;;;;10.29;100.00;100898.47;4984188;28;20199;-74
2023/01/06 00:08:04;;;;;;;8.75;4.40;;;;;;;10.23;100.00;100896.88;4997970;28;20209;-76
2023/01/06 00:10:31;;;;;;;9.60;5.00;;;;;;;10.30;100.00;100897.56;4993932;28;20206;-74
2023/01/06 00:12:58;;;;;;;5.65;4.18;;;;;;;10.34;100.00;100901.91;4995047;28;20713;-75
2023/01/06 00:15:26;;;;;;;10.32;4.63;;;;;;;10.31;100.00;100894.81;4996713;28;20290;-76
2023/01/06 00:17:52;;;;;;;10.13;4.50;;;;;;;10.29;100.00;100891.31;4996646;28;20210;-76
2023/01/06 00:20:19;;;;;;;9.45;4.95;;;;;;;10.27;100.00;100890.44;4997739;28;20668;-75
2023/01/06 00:22:46;;;;;;;9.57;3.30;;;;;;;10.27;100.00;100884.19;4998667;28;20219;-75
2023/01/06 00:25:12;;;;;;;10.30;4.95;;;;;;;10.23;100.00;100881.59;4997048;28;20621;-74
2023/01/06 00:27:39;;;;;;;10.75;5.18;;;;;;;10.27;100.00;100885.06;4994474;28;20207;-77
2023/01/06 00:30:08;;;;;;;9.00;4.60;;;;;;;10.27;100.00;100882.38;4993948;28;20195;-76
2023/01/06 00:32:36;;;;;;;7.40;4.38;;;;;;;10.32;100.00;100879.53;4997912;28;20579;-76
2023/01/06 00:35:03;;;;;;;9.80;4.00;;;;;;;10.26;100.00;100866.25;4995156;28;20254;-76
2023/01/06 00:37:29;;;;;;;9.95;4.55;;;;;;;10.18;100.00;100866.56;4994119;28;20213;-76
2023/01/06 00:39:56;;;;;;;11.27;4.78;;;;;;;10.16;100.00;100869.28;4994757;28;20233;-75
2023/01/06 00:42:23;;;;;;;14.07;5.85;;;;;;;10.08;100.00;100863.28;4994437;28;20218;-75
2023/01/06 00:44:50;;;;;;;8.18;4.63;;;;;;;10.05;100.00;100859.84;4994602;28;20200;-74
2023/01/06 00:47:17;;;;;;;7.63;4.70;;;;;;;10.07;100.00;100860.69;4995962;28;20262;-76
2023/01/06 00:49:46;;;;;;;7.55;4.80;;;;;;;10.00;100.00;100854.63;4997639;28;20200;-75
2023/01/06 00:52:13;;;;;;;10.30;6.00;;;;;;;10.01;100.00;100857.25;4996009;28;20254;-76
2023/01/06 00:54:40;;;;;;;14.68;5.70;;;;;;;10.02;100.00;100852.78;4995484;28;20665;-75
2023/01/06 00:57:07;;;;;;;10.82;5.88;;;;;;;9.98;100.00;100854.69;4991479;28;20215;-75
2023/01/06 00:59:34;;;;;;;9.05;5.32;;;;;;;9.98;100.00;100851.13;4993259;28;20605;-75
2023/01/06 01:02:01;;;;;;;10.35;5.72;;;;;;;9.90;100.00;100847.81;4992703;28;20626;-75
2023/01/06 01:04:28;;;;;;;9.95;5.93;;;;;;;9.92;100.00;100851.31;4993415;28;20210;-76
2023/01/06 01:06:56;;;;;;;15.50;7.18;;;;;;;9.94;100.00;100861.09;4993700;28;20200;-73
2023/01/06 01:09:24;;;;;;;14.73;5.53;;;;;;;9.92;100.00;100848.63;4992738;28;20211;-75
2023/01/06 01:12:10;;;;;;;12.32;6.28;;;;;;;9.91;100.00;100857.66;4997932;28;20360;-75
2023/01/06 01:14:38;;;;;;;8.43;5.38;;;;;;;9.99;100.00;100848.38;5000163;28;20187;-74
2023/01/06 01:17:05;;;;;;;7.95;5.03;;;;;;;9.98;100.00;100853.81;5004499;28;20199;-75
2023/01/06 01:19:32;;;;;;;13.88;5.90;;;;;;;10.00;100.00;100851.94;5014515;28;20273;-76
2023/01/06 01:22:00;;;;;;;8.80;6.40;;;;;;;10.07;100.00;100853.47;5014067;28;20259;-74
2023/01/06 01:24:26;;;;;;;10.10;5.82;;;;;;;10.14;100.00;100851.44;5006533;28;20204;-74
2023/01/06 01:26:53;;;;;;;8.75;6.10;;;;;;;10.20;100.00;100853.91;4998601;28;20279;-74
2023/01/06 01:29:20;;;;;;;10.00;5.85;;;;;;;10.23;100.00;100857.34;4991238;28;20246;-75
2023/01/06 01:31:47;;;;;;;8.48;5.95;;;;;;;10.25;100.00;100857.31;4994161;28;20311;-75
2023/01/06 01:34:16;;;;;;;7.70;5.32;;;;;;;10.28;100.00;100859.00;4991972;28;20210;-75
2023/01/06 01:36:44;;;;;;;15.43;6.13;;;;;;;10.34;100.00;100869.59;4991147;28;20207;-75
2023/01/06 01:39:14;;;;;;;11.00;7.32;;;;;;;10.34;100.00;100869.59;4990580;28;20230;-75
2023/01/06 01:41:42;;;;;;;11.65;7.50;;;;;;;10.37;100.00;100858.69;4990648;28;20232;-76
2023/01/06 01:44:48;;;;;;;10.70;6.70;;;;;;;10.42;100.00;100865.69;4997652;28;20226;-75
2023/01/06 01:47:17;;;;;;;11.82;7.72;;;;;;;10.38;100.00;100868.56;4997428;28;20664;-76
2023/01/06 01:49:46;;;;;;;11.98;7.28;;;;;;;10.41;100.00;100857.66;4998938;28;20234;-75
2023/01/06 01:52:14;;;;;;;11.15;7.55;;;;;;;10.47;100.00;100862.81;4995487;28;20569;-75
2023/01/06 01:54:43;;;;;;;13.45;8.00;;;;;;;10.47;100.00;100860.13;4994581;28;20199;-75
2023/01/06 01:57:14;;;;;;;10.15;7.15;;;;;;;10.56;100.00;100859.78;4994713;28;20684;-75
2023/01/06 01:59:43;;;;;;;10.18;6.88;;;;;;;10.59;100.00;100861.47;4995633;28;20229;-74
2023/01/06 02:02:10;;;;;;;9.25;7.47;;;;;;;10.53;100.00;100856.31;4994275;28;20231;-74
2023/01/06 02:04:41;;;;;;;10.20;7.55;;;;;;;10.57;100.00;100853.44;4993845;28;20546;-73
2023/01/06 02:07:08;;;;;;;10.40;7.53;;;;;;;10.59;100.00;100854.25;4994727;28;20279;-72
2023/01/06 02:09:42;;;;;;;10.55;7.15;;;;;;;10.58;100.00;100852.53;4994294;28;20298;-75
2023/01/06 02:12:11;;;;;;;11.57;7.85;;;;;;;10.57;100.00;100850.75;4994159;28;20325;-73
2023/01/06 02:14:38;;;;;;;9.05;7.18;;;;;;;10.61;100.00;100849.69;4993221;28;20242;-73
2023/01/06 02:17:14;;;;;;;10.00;7.05;;;;;;;10.55;100.00;100835.59;4994088;28;20207;-73
2023/01/06 02:20:14;;;;;;;10.63;7.10;;;;;;;10.58;100.00;100835.47;4993436;28;20734;-72
2023/01/06 02:23:30;;;;;;;10.73;7.95;;;;;;;10.57;100.00;100834.59;4994546;28;20221;-73
2023/01/06 02:26:41;;;;;;;11.27;7.28;;;;;;;10.59;100.00;100832.72;4915620;29;20216;-72
2023/01/06 02:29:55;;;;;;;9.85;7.88;;;;;;;10.50;100.00;100819.59;4914891;29;20202;-72
2023/01/06 02:32:40;;;;;;;11.13;9.20;;;;;;;10.52;100.00;100822.25;4920896;29;20230;-73
2023/01/06 02:35:21;;;;;;;13.20;9.43;;;;;;;10.51;100.00;100826.72;4920257;29;20193;-73
2023/01/06 02:37:59;;;;;;;11.00;8.80;;;;;;;10.56;100.00;100819.38;4919578;29;20201;-73
2023/01/06 02:40:43;;;;;;;11.38;9.07;;;;;;;10.52;100.00;100823.13;4915959;29;20241;-75
2023/01/06 02:43:15;;;;;;;13.30;8.80;;;;;;;10.53;100.00;100822.16;4922740;29;20221;-75
2023/01/06 02:45:51;;;;;;;10.75;8.73;;;;;;;10.57;100.00;100810.34;4916069;29;20212;-74
2023/01/06 02:48:26;;;;;;;12.10;8.52;;;;;;;10.59;100.00;100807.59;4914852;29;20197;-73
2023/01/06 02:51:01;;;;;;;15.88;9.35;;;;;;;10.59;100.00;100808.47;4915610;29;20557;-74
2023/01/06 02:53:35;;;;;;;10.82;8.25;;;;;;;10.60;100.00;100812.91;4915245;29;20201;-74
2023/01/06 02:56:03;;;;;;;10.50;7.47;;;;;;;10.66;100.00;100802.84;4915602;29;20699;-74
2023/01/06 02:58:35;;;;;;;16.30;8.80;;;;;;;10.64;100.00;100798.38;4914571;29;20202;-73
2023/01/06 03:01:07;;;;;;;8.50;6.60;;;;;;;10.67;100.00;100807.28;4914617;29;20584;-73
2023/01/06 03:03:38;;;;;;;9.65;7.35;;;;;;;10.69;100.00;100803.59;4990426;28;20203;-72
2023/01/06 03:06:10;;;;;;;9.57;7.95;;;;;;;10.73;100.00;100813.31;4995453;28;20207;-73
2023/01/06 03:08:38;;;;;;;7.93;7.03;;;;;;;10.74;100.00;100804.31;4993365;28;20200;-75
2023/01/06 03:11:05;;;;;;;8.45;6.85;;;;;;;10.77;100.00;100814.09;4993101;28;20203;-74
2023/01/06 03:13:38;;;;;;;9.45;7.70;;;;;;;10.76;100.00;100813.22;4993016;28;20210;-74
2023/01/06 03:16:05;;;;;;;13.45;8.02;;;;;;;10.74;100.00;100808.81;4995493;28;20198;-73
2023/01/06 03:18:34;;;;;;;8.70;7.15;;;;;;;10.78;100.00;100802.34;4992552;28;20200;-73
2023/01/06 03:21:07;;;;;;;9.50;7.43;;;;;;;10.81;100.00;100818.41;4993000;28;20546;-74
2023/01/06 03:23:34;;;;;;;11.82;7.22;;;;;;;10.80;100.00;100819.34;4992524;28;20198;-73
2023/01/06 03:26:00;;;;;;;11.05;7.57;;;;;;;10.84;100.00;100810.19;4997589;28;20212;-71
2023/01/06 03:28:27;;;;;;;10.82;7.93;;;;;;;10.81;100.00;100811.22;5009522;28;20204;-73
2023/01/06 03:31:02;;;;;;;9.85;7.30;;;;;;;10.78;100.00;100816.69;4995888;28;20227;-74
2023/01/06 03:33:34;;;;;;;8.65;7.03;;;;;;;10.88;100.00;100819.94;4992433;28;20242;-73
2023/01/06 03:36:12;;;;;;;9.00;7.32;;;;;;;10.76;100.00;100807.81;4992929;28;20278;-72
2023/01/06 03:38:48;;;;;;;10.15;7.63;;;;;;;10.74;100.00;100809.69;4992013;28;20578;-73
2023/01/06 03:43:10;;;;;;;9.80;7.70;;;;;;;10.72;100.00;100811.56;4992509;28;20734;-74
2023/01/06 03:44:18;;;;;;;9.75;7.22;;;;;;;10.68;100.00;100803.69;4992227;28;20266;-73
2023/01/06 03:46:53;;;;;;;9.50;7.72;;;;;;;10.57;100.00;100799.56;4992292;28;20228;-74
2023/01/06 03:49:27;;;;;;;10.50;7.20;;;;;;;10.56;100.00;100800.53;4991309;28;20237;-73
2023/01/06 03:51:58;;;;;;;10.90;7.82;;;;;;;10.52;100.00;100801.56;4993248;28;20408;-73
2023/01/06 03:54:37;;;;;;;9.35;7.20;;;;;;;10.52;100.00;100796.19;4996323;28;20219;-74
2023/01/06 03:57:07;;;;;;;9.20;7.55;;;;;;;10.49;100.00;100800.81;4996313;28;20198;-74
2023/01/06 03:59:41;;;;;;;13.60;7.88;;;;;;;10.44;100.00;100791.09;4996800;28;20281;-74
2023/01/06 04:02:08;;;;;;;10.93;8.85;;;;;;;10.50;100.00;100784.59;4996296;28;20592;-73
2023/01/06 04:04:35;;;;;;;13.45;8.98;;;;;;;10.50;100.00;100784.59;4996327;28;20209;-74
2023/01/06 04:07:03;;;;;;;9.70;7.85;;;;;;;10.47;100.00;100783.81;4996263;28;20261;-74
2023/01/06 04:09:29;;;;;;;9.05;7.60;;;;;;;10.44;100.00;100782.13;4995380;28;20560;-73
2023/01/06 04:14:45;;;;;;;9.40;7.05;;;;;;;10.53;100.00;100783.59;4975930;28;20203;-75
2023/01/06 04:17:11;;;;;;;10.55;6.72;;;;;;;10.55;100.00;100785.28;4995879;28;20214;-73
2023/01/06 04:19:38;;;;;;;8.55;6.65;;;;;;;10.59;100.00;100781.53;4995689;28;20199;-74
2023/01/06 04:22:06;;;;;;;8.20;6.28;;;;;;;10.60;100.00;100782.41;4996474;28;20640;-75
2023/01/06 04:24:32;;;;;;;11.65;6.70;;;;;;;10.58;100.00;100777.09;4996587;28;20203;-74
2023/01/06 04:26:59;;;;;;;9.00;6.63;;;;;;;10.62;100.00;100772.47;4997367;28;20288;-73
2023/01/06 04:29:25;;;;;;;8.68;6.72;;;;;;;10.61;100.00;100770.72;4995819;28;20565;-75
2023/01/06 04:31:52;;;;;;;7.97;6.43;;;;;;;10.60;100.00;100759.03;4996666;28;20310;-73
2023/01/06 04:34:18;;;;;;;13.85;7.55;;;;;;;10.65;100.00;100766.97;4995661;28;20211;-74
2023/01/06 04:36:45;;;;;;;8.30;5.47;;;;;;;10.66;100.00;100768.72;4996123;28;20211;-74
2023/01/06 04:39:13;;;;;;;7.32;6.28;;;;;;;10.68;100.00;100766.84;4994876;28;20568;-73
2023/01/06 04:41:39;;;;;;;6.43;5.45;;;;;;;10.66;100.00;100768.72;4995089;28;20231;-75
2023/01/06 04:44:06;;;;;;;6.30;5.55;;;;;;;10.69;100.00;100765.88;4996435;28;20223;-75
2023/01/06 04:46:32;;;;;;;6.20;5.28;;;;;;;10.70;100.00;100764.09;4995696;28;20261;-74
2023/01/06 04:48:59;;;;;;;5.00;4.18;;;;;;;10.76;100.00;100774.59;4997112;28;20199;-75
2023/01/06 04:51:25;;;;;;;5.80;4.20;;;;;;;10.73;100.00;100777.44;4998407;28;20230;-73
2023/01/06 04:53:52;;;;;;;10.45;4.55;;;;;;;10.71;100.00;100777.47;4997854;28;20203;-74
2023/01/06 04:56:20;;;;;;;4.60;3.42;;;;;;;10.71;100.00;100784.69;4997729;28;20210;-72
2023/01/06 04:58:46;;;;;;;4.88;4.05;;;;;;;10.67;100.00;100783.91;4995142;28;20199;-73
2023/01/06 05:01:13;;;;;;;5.68;3.55;;;;;;;10.73;100.00;100786.38;4994808;28;20231;-73
2023/01/06 05:03:41;;;;;;;6.22;3.53;;;;;;;10.71;100.00;100787.38;4982492;28;20202;-75
2023/01/06 05:06:10;;;;;;;2.88;2.40;;;;;;;10.74;100.00;100782.75;4989821;28;20200;-72
2023/01/06 05:08:37;;;;;;;2.40;1.77;;;;;;;10.82;100.00;100788.69;4991967;28;20227;-72
2023/01/06 05:11:07;;;;;;;3.08;2.15;;;;;;;10.77;100.00;100792.53;5002685;28;20194;-71
2023/01/06 05:13:35;;;;;;;3.50;1.45;;;;;;;10.83;100.00;100781.50;4997818;28;20184;-74
2023/01/06 05:16:05;;;;;;;2.00;1.40;;;;;;;10.87;100.00;100790.34;4982072;28;20200;-73
2023/01/06 05:18:32;;;;;;;3.03;1.42;;;;;;;10.84;100.00;100791.34;4988324;28;20678;-73
2023/01/06 05:20:58;;;;;;;3.00;1.80;;;;;;;10.85;100.00;100785.91;4984295;28;20670;-73
2023/01/06 05:23:25;;;;;;;1.70;1.30;;;;;;;10.78;100.00;100787.06;4980089;28;20746;-73
2023/01/06 05:25:52;;;;;;;4.30;1.90;;;;;;;10.80;100.00;100789.69;4997100;28;20346;-74
2023/01/06 05:28:19;;;;;;;2.88;1.60;;;;;;;10.81;100.00;100783.41;4998665;28;20757;-73
2023/01/06 05:30:48;;;;;;;3.92;2.17;;;;;;;10.82;100.00;100790.53;4995825;28;20262;-73
2023/01/06 05:33:15;;;;;;;3.75;1.85;;;;;;;10.84;100.00;100794.03;4995381;28;20219;-72
2023/01/06 05:35:41;;;;;;;2.67;1.80;;;;;;;10.79;100.00;100779.88;4993649;28;20203;-73
2023/01/06 05:38:08;;;;;;;4.00;1.85;;;;;;;10.76;100.00;100786.28;4975512;28;20218;-74
2023/01/06 05:40:35;;;;;;;2.10;1.25;;;;;;;10.76;100.00;100779.97;4975673;28;20220;-74
2023/01/06 05:43:01;;;;;;;1.80;1.60;;;;;;;10.84;100.00;100776.03;4998232;28;20223;-75
2023/01/06 05:45:28;;;;;;;2.95;1.30;;;;;;;10.84;100.00;100784.13;4995539;28;20203;-73
2023/01/06 05:47:56;;;;;;;1.95;1.00;;;;;;;10.79;100.00;100787.97;4995163;28;20203;-73
2023/01/06 05:50:23;;;;;;;1.80;1.20;;;;;;;10.81;100.00;100780.69;4994407;28;20218;-73
2023/01/06 05:52:49;;;;;;;3.35;1.27;;;;;;;10.83;100.00;100784.19;4986891;28;20224;-74
2023/01/06 05:55:16;;;;;;;2.40;1.40;;;;;;;10.86;100.00;100794.84;4976873;28;20211;-72
2023/01/06 05:57:42;;;;;;;2.00;1.45;;;;;;;10.84;100.00;100796.72;4974767;28;20208;-75
2023/01/06 06:00:10;;;;;;;2.92;1.23;;;;;;;10.79;100.00;100796.91;4987640;28;20213;-73
2023/01/06 06:02:37;;;;;;;3.28;2.00;;;;;;;10.84;100.00;100800.28;4994839;28;20227;-75
2023/01/06 06:05:05;;;;;;;3.78;1.80;;;;;;;10.77;100.00;100800.63;4995221;28;20680;-75
2023/01/06 06:07:32;;;;;;;1.73;1.20;;;;;;;10.83;100.00;100803.03;4994950;28;20210;-73
2023/01/06 06:09:58;;;;;;;1.85;0.90;;;;;;;10.77;100.00;100797.94;4994847;28;20210;-73
2023/01/06 06:12:25;;;;;;;2.40;1.52;;;;;;;10.71;100.00;100808.94;4995414;28;20223;-72
2023/01/06 06:14:51;;;;;;;5.05;1.65;;;;;;;10.71;100.00;100817.88;4998354;28;20744;-72
2023/01/06 06:17:18;;;;;;;2.17;1.15;;;;;;;10.78;100.00;100826.59;4998080;28;20254;-73
2023/01/06 06:19:45;;;;;;;2.58;1.00;;;;;;;10.75;100.00;100813.25;4999535;28;20290;-73
2023/01/06 06:22:13;;;;;;;2.35;1.50;;;;;;;10.68;100.00;100800.97;5001220;28;20246;-74
2023/01/06 06:24:39;;;;;;;3.80;1.20;;;;;;;10.70;100.00;100802.66;4999723;28;20205;-74
2023/01/06 06:27:06;;;;;;;1.95;1.05;;;;;;;10.72;100.00;100808.88;4999570;28;20203;-75
2023/01/06 06:29:32;;;;;;;1.70;1.20;;;;;;;10.60;100.00;100802.13;5000593;28;20293;-74
2023/01/06 06:31:59;;;;;;;1.80;1.00;;;;;;;10.64;100.00;100800.22;5002955;28;20671;-73
2023/01/06 06:34:25;;;;;;;2.47;1.33;;;;;;;10.61;100.00;100803.03;4995572;28;20209;-74
2023/01/06 06:36:53;;;;;;;2.20;1.10;;;;;;;10.55;100.00;100803.28;4995620;28;20253;-75
2023/01/06 06:39:21;;;;;;;1.73;1.08;;;;;;;10.57;100.00;100804.09;4993790;28;20210;-75
2023/01/06 06:41:48;;;;;;;2.25;1.20;;;;;;;10.54;100.00;100797.00;4994446;28;20286;-74
2023/01/06 06:44:14;;;;;;;1.98;0.85;;;;;;;10.49;100.00;100809.78;4994251;28;20203;-75
2023/01/06 06:46:41;;;;;;;2.50;0.90;;;;;;;10.51;100.00;100812.41;4995025;28;20222;-74
2023/01/06 06:49:07;;;;;;;3.05;1.23;;;;;;;10.50;100.00;100810.66;4998820;28;20207;-72
2023/01/06 06:51:34;;;;;;;4.20;1.20;;;;;;;10.44;100.00;100801.84;4998256;28;20227;-73
2023/01/06 06:54:00;;;;;;;2.45;1.20;;;;;;;10.42;100.00;100810.94;4997646;28;20198;-73
2023/01/06 06:56:28;;;;;;;1.45;1.05;;;;;;;10.41;100.00;100803.81;4997632;28;20203;-74
2023/01/06 06:58:55;;;;;;;2.03;1.00;;;;;;;10.46;100.00;100815.25;4996061;28;20274;-75
2023/01/06 07:01:22;;;;;;;3.72;1.00;;;;;;;10.37;100.00;100819.19;4997268;28;20226;-75
2023/01/06 07:03:49;;;;;;;1.73;0.90;;;;;;;10.38;100.00;100809.31;4996237;28;20213;-75
2023/01/06 07:06:19;;;;;;;1.30;0.75;;;;;;;10.40;100.00;100808.31;4998073;28;20203;-74
2023/01/06 07:08:47;;;;;;;1.83;0.80;;;;;;;10.40;100.00;100818.19;4996406;28;20294;-76
2023/01/06 07:11:13;;;;;;;1.30;0.77;;;;;;;10.40;100.00;100816.41;4996751;28;20203;-72
2023/01/06 07:13:41;;;;;;;2.88;0.82;;;;;;;10.40;100.00;100815.50;4998185;28;20298;-75
2023/01/06 07:16:09;;;;;;;1.98;1.00;;;;;;;10.42;100.00;100813.63;4997945;28;20208;-74
2023/01/06 07:18:36;;;;;;;1.98;1.00;;;;;;;10.40;100.00;100812.81;4995754;28;20783;-74
2023/01/06 07:21:02;;;;;;;1.20;0.70;;;;;;;10.43;100.00;100815.41;4995723;28;20233;-73
2023/01/06 07:23:29;;;;;;;1.45;0.80;;;;;;;10.41;100.00;100825.34;4996916;28;20579;-74
2023/01/06 07:25:58;;;;;;;1.40;0.80;;;;;;;10.37;100.00;100821.88;4997831;28;20270;-72
2023/01/06 07:28:25;;;;;;;2.90;0.70;;;;;;;10.38;100.00;100814.69;5001601;28;20203;-74
2023/01/06 07:30:53;;;;;;;2.60;1.00;;;;;;;10.33;100.00;100813.97;5003801;28;20203;-75
2023/01/06 07:33:21;;;;;;;1.92;0.80;;;;;;;10.33;100.00;100813.97;5003848;28;20226;-77
2023/01/06 07:35:52;;;;;;;3.17;0.90;;;;;;;10.32;100.00;100820.31;5005118;28;20213;-74
2023/01/06 07:38:18;;;;;;;3.42;1.10;;;;;;;10.30;100.00;100817.66;5003172;28;20279;-73
2023/01/06 07:40:45;;;;;;;3.67;1.50;;;;;;;10.32;100.00;100823.00;5004409;28;20206;-74
2023/01/06 07:43:11;;;;;;;2.15;1.30;;;;;;;10.40;100.00;100834.34;5004290;28;20694;-74
2023/01/06 07:45:38;;;;;;;2.15;0.70;;;;;;;10.36;100.00;100830.91;5010974;28;20211;-73
2023/01/06 07:48:06;;;;;;;2.78;1.65;;;;;;;10.39;100.00;100830.78;5008255;28;20613;-72
2023/01/06 07:50:33;;;;;;;1.45;0.70;;;;;;;10.34;100.00;100832.78;5009438;28;20205;-72
2023/01/06 07:53:01;;;;;;;2.05;0.82;;;;;;;10.33;100.00;100825.63;5014095;28;20227;-72
2023/01/06 07:55:28;;;;;;;2.60;1.08;;;;;;;10.38;100.00;100838.94;5015701;28;20267;-74
2023/01/06 07:57:55;;;;;;;1.85;0.80;;;;;;;10.41;100.00;100833.41;5003249;28;20266;-73
2023/01/06 08:00:22;;;;;;;3.28;1.70;;;;;;;10.41;100.00;100836.97;5002637;28;20219;-75
2023/01/06 08:02:48;;;;;;;2.28;1.00;;;;;;;10.44;100.00;100841.38;5052494;22;20230;-73
2023/01/06 08:05:16;;;;;;;4.55;1.20;;;;;;;10.45;100.00;100845.84;5043053;28;20202;-75
2023/01/06 08:07:43;;;;;;;1.60;1.00;;;;;;;10.49;100.00;100841.19;5041854;28;20209;-72
2023/01/06 08:10:10;;;;;;;1.38;0.80;;;;;;;10.47;100.00;100838.59;5043222;28;20232;-73
2023/01/06 08:12:37;;;;;;;1.80;1.25;;;;;;;10.48;100.00;100845.72;5043510;28;20252;-73
2023/01/06 08:15:04;;;;;;;1.30;0.80;;;;;;;10.52;100.00;100847.34;5045209;28;20202;-71
2023/01/06 08:17:30;;;;;;;2.03;0.88;;;;;;;10.52;100.00;100836.59;5044464;28;20211;-74
2023/01/06 08:19:57;;;;;;;1.70;0.90;;;;;;;10.58;100.00;100840.84;5040641;28;20213;-71
2023/01/06 08:22:25;;;;;;;1.27;0.70;;;;;;;10.51;100.00;100845.59;5041613;28;20229;-72
2023/01/06 08:24:51;;;;;;;1.40;0.70;;;;;;;10.62;100.00;100846.06;5042567;28;20357;-73
2023/01/06 08:27:19;;;;;;;1.25;0.70;;;;;;;10.68;100.00;100846.78;5042902;28;20201;-71
2023/01/06 08:29:46;;;;;;;2.28;0.70;;;;;;;10.68;100.00;100849.47;5041965;28;20198;-72
2023/01/06 08:32:13;;;;;;;1.98;0.80;;;;;;;10.69;100.00;100851.22;5043060;28;20218;-72
2023/01/06 08:34:39;;;;;;;2.20;0.80;;;;;;;10.72;100.00;100848.38;5042037;28;20202;-74
2023/01/06 08:37:06;;;;;;;1.65;0.73;;;;;;;10.73;100.00;100847.47;5042973;28;20212;-74
2023/01/06 08:39:34;;;;;;;1.40;0.80;;;;;;;10.76;100.00;100841.94;5038751;28;20288;-71
2023/01/06 08:42:01;;;;;;;1.80;0.80;;;;;;;10.71;100.00;100846.66;5041483;28;20230;-72
2023/01/06 08:44:27;;;;;;;1.42;0.80;;;;;;;10.68;100.00;100839.56;5044172;28;20742;-73
2023/01/06 08:46:54;;;;;;;2.03;0.73;;;;;;;10.77;100.00;100836.50;5045668;28;20285;-72
2023/01/06 08:49:21;;;;;;;1.40;1.00;;;;;;;10.75;100.00;100833.00;5045216;28;20229;-71
2023/01/06 08:51:47;;;;;;;2.03;1.00;;;;;;;10.74;100.00;100828.56;5045838;28;20246;-73
2023/01/06 08:54:14;;;;;;;3.28;1.10;;;;;;;10.68;100.00;100838.69;5046987;28;20276;-73
2023/01/06 08:56:43;;;;;;;1.90;0.80;;;;;;;10.68;100.00;100850.34;5045872;28;20202;-72
2023/01/06 08:59:13;;;;;;;1.38;0.70;;;;;;;10.68;100.00;100844.94;5039154;28;20206;-72
2023/01/06 09:01:40;;;;;;;1.52;0.70;;;;;;;10.69;100.00;100852.09;5039598;28;20238;-72
2023/01/06 09:04:08;;;;;;;2.15;0.90;;;;;;;10.71;100.00;100838.56;5041011;28;20186;-73
2023/01/06 09:06:36;;;;;;;1.60;1.10;;;;;;;10.74;100.00;100827.66;5041322;28;20280;-72
2023/01/06 09:09:03;;;;;;;1.42;0.90;;;;;;;10.80;100.00;100840.91;5042973;28;20197;-71
2023/01/06 09:11:30;;;;;;;1.90;0.90;;;;;;;10.70;100.00;100829.59;5045316;28;20217;-73
2023/01/06 09:13:58;;;;;;;1.80;1.10;;;;;;;10.81;100.00;100839.97;5045577;28;20212;-72
2023/01/06 09:16:25;;;;;;;1.63;0.73;;;;;;;10.76;100.00;100840.16;5045756;28;20211;-71
2023/01/06 09:18:52;;;;;;;1.50;0.90;;;;;;;10.82;100.00;100839.03;5043713;28;20676;-72
2023/01/06 09:21:21;;;;;;;1.38;0.77;;;;;;;10.80;100.00;100841.75;5044723;28;20226;-71
2023/01/06 09:23:48;;;;;;;2.15;0.85;;;;;;;10.80;100.00;100836.38;5047108;28;20237;-71
2023/01/06 09:26:16;;;;;;;1.40;0.75;;;;;;;10.79;100.00;100848.09;5048571;28;20266;-71
2023/01/06 09:28:43;;;;;;;2.00;0.82;;;;;;;10.72;100.00;100849.28;5049288;28;20300;-72
2023/01/06 09:31:11;;;;;;;2.05;0.80;;;;;;;10.75;100.00;100856.38;5050412;28;20324;-72
2023/01/06 09:33:38;;;;;;;3.97;1.00;;;;;;;10.74;100.00;100863.59;5050637;28;20182;-71
2023/01/06 09:36:05;;;;;;;3.50;0.90;;;;;;;10.70;100.00;100867.31;5049801;28;20206;-72
2023/01/06 09:38:32;;;;;;;2.05;1.02;;;;;;;10.70;100.00;100870.03;5049102;28;20202;-72
2023/01/06 09:41:32;;;;;;;2.38;1.00;;;;;;;10.67;100.00;100871.94;5049792;28;20277;-71
2023/01/06 09:44:05;;;;;;;1.55;1.00;;;;;;;10.77;100.00;100876.06;5049122;28;20236;-72
2023/01/06 09:46:37;;;;;;;1.48;0.93;;;;;;;10.76;100.00;100882.38;5048885;28;20201;-73
2023/01/06 09:49:13;;;;;;;1.90;0.80;;;;;;;10.80;100.00;100878.63;5046946;28;20205;-73
2023/01/06 09:51:40;;;;;;;2.15;0.82;;;;;;;10.74;100.00;100881.53;5047791;28;20221;-73
2023/01/06 09:54:15;;;;;;;2.40;1.00;;;;;;;10.80;100.00;100884.88;5046889;28;20233;-73
2023/01/06 09:56:43;;;;;;;3.00;1.60;;;;;;;10.84;100.00;100881.13;5047020;28;20268;-71
2023/01/06 09:59:17;;;;;;;2.22;1.20;;;;;;;10.98;100.00;100877.03;5046164;28;20266;-71
2023/01/06 10:01:49;;;;;;;1.80;0.90;;;;;;;11.07;100.00;100872.13;5047315;28;20617;-72
2023/01/06 10:04:20;;;;;;;1.90;1.40;;;;;;;11.05;100.00;100876.72;5049540;28;20221;-74
2023/01/06 10:06:54;;;;;;;1.90;1.00;;;;;;;11.12;100.00;100882.72;5048959;28;20297;-71
2023/01/06 10:09:28;;;;;;;3.15;1.15;;;;;;;11.07;100.00;100872.13;5047685;28;20186;-73
2023/01/06 10:12:08;;;;;;;2.58;1.00;;;;;;;11.11;100.00;100875.59;5049518;28;20288;-74
2023/01/06 10:14:45;;;;;;;2.40;0.82;;;;;;;11.09;100.00;100879.28;5049690;28;20252;-73
2023/01/06 10:17:32;;;;;;;1.70;0.88;;;;;;;11.10;100.00;100884.59;5049145;28;20297;-72
2023/01/06 10:20:08;;;;;;;1.40;0.80;;;;;;;11.12;100.00;100871.94;5050008;28;20261;-72
2023/01/06 10:22:46;;;;;;;1.30;0.60;;;;;;;11.15;100.00;100873.66;5050171;28;20268;-72
2023/01/06 10:25:19;;;;;;;1.30;0.70;;;;;;;11.17;100.00;100871.75;5048036;28;20575;-72
2023/01/06 10:27:50;;;;;;;2.28;0.80;;;;;;;11.16;100.00;100867.31;5048722;28;20265;-72
2023/01/06 10:30:21;;;;;;;1.58;0.85;;;;;;;11.27;100.00;100870.47;5047518;28;20186;-72
2023/01/06 10:32:50;;;;;;;1.50;0.90;;;;;;;11.32;100.00;100865.75;5047310;28;20241;-72
2023/01/06 10:35:20;;;;;;;1.90;0.90;;;;;;;11.47;100.00;100865.13;5046722;28;20237;-73
2023/01/06 10:37:48;;;;;;;1.50;0.80;;;;;;;11.48;100.00;100861.47;5045459;28;20568;-73
2023/01/06 10:40:21;;;;;;;2.03;0.70;;;;;;;11.59;100.00;100868.25;5044752;28;20767;-70
2023/01/06 10:42:58;;;;;;;1.38;0.70;;;;;;;11.68;100.00;100863.34;5047195;28;20230;-74
2023/01/06 10:45:29;;;;;;;1.67;0.80;;;;;;;11.74;100.00;100859.50;5048033;28;20190;-73
2023/01/06 10:47:59;;;;;;;2.08;0.95;;;;;;;11.83;100.00;100871.72;5047321;28;20232;-73
2023/01/06 10:50:26;;;;;;;2.17;0.77;;;;;;;11.76;100.00;100854.94;5047147;28;20198;-71
2023/01/06 10:52:53;;;;;;;1.50;0.82;;;;;;;11.79;100.00;100856.63;5048211;28;20222;-72
2023/01/06 10:55:39;;;;;;;2.60;0.80;;;;;;;11.87;100.00;100849.03;5047594;28;20228;-71
2023/01/06 10:58:15;;;;;;;1.20;0.75;;;;;;;12.08;100.00;100844.56;5046893;28;20277;-71
2023/01/06 11:00:55;;;;;;;1.30;0.68;;;;;;;12.17;100.00;100848.69;5047546;28;20186;-74
2023/01/06 11:03:23;;;;;;;1.83;0.70;;;;;;;12.29;100.00;100843.59;5046526;28;20225;-71
2023/01/06 11:06:00;;;;;;;2.50;0.63;;;;;;;12.19;100.00;100833.25;5046170;28;20643;-72
2023/01/06 11:08:28;;;;;;;1.30;0.80;;;;;;;12.09;100.00;100836.38;5048889;28;20198;-73
2023/01/06 11:10:56;;;;;;;1.17;0.70;;;;;;;11.95;100.00;100825.34;5047878;28;20182;-72
2023/01/06 11:13:26;;;;;;;2.58;1.05;;;;;;;12.01;100.00;100833.16;5047814;28;20229;-72
2023/01/06 11:15:54;;;;;;;3.47;2.40;;;;;;;12.08;100.00;100831.06;5046801;28;20292;-71
2023/01/06 11:18:25;;;;;;;1.95;0.80;;;;;;;11.92;100.00;100835.38;5046123;28;20735;-72
2023/01/06 11:21:04;;;;;;;1.90;0.70;;;;;;;11.89;100.00;100817.50;5045163;28;20182;-70
2023/01/06 11:23:31;;;;;;;2.80;0.93;;;;;;;12.01;100.00;100808.00;5047951;28;20289;-71
2023/01/06 11:26:14;;;;;;;1.30;0.70;;;;;;;12.01;100.00;100800.78;5052091;28;20226;-71
2023/01/06 11:28:42;;;;;;;3.05;0.98;;;;;;;12.02;100.00;100809.75;5052768;28;20192;-71
2023/01/06 11:31:10;;;;;;;3.70;1.27;;;;;;;12.00;100.00;100817.91;5051309;28;20209;-72